Time;durP1;ratioP1;P1;durP2;ratioP2;P2;SDS_P1;SDS_P2;PMS_P1;PMS_P2;Temp;Humidity;BMP_temperature;BMP_pressure;BME280_temperature;BME280_humidity;BME280_pressure;Samples;Min_cycle;Max_cycle;Signal;HPM_P1;HPM_P2
2022/01/19 00:01:10;;;;;;;12.70;5.63;;;-3.90;79.80;;;;;;6184493;23;20075;-67
2022/01/19 00:03:36;;;;;;;12.40;6.40;;;-3.90;80.10;;;;;;6158269;23;20389;-66
2022/01/19 00:06:02;;;;;;;8.70;3.92;;;-3.90;80.40;;;;;;6184501;23;20001;-65
2022/01/19 00:08:28;;;;;;;7.00;3.42;;;-3.90;80.60;;;;;;6184528;23;20079;-66
2022/01/19 00:10:55;;;;;;;6.97;3.75;;;-3.90;80.70;;;;;;6184552;23;20000;-67
2022/01/19 00:13:20;;;;;;;8.27;3.60;;;-4.00;80.90;;;;;;6184373;23;20012;-65
2022/01/19 00:15:47;;;;;;;6.97;3.50;;;-4.00;81.00;;;;;;6184349;23;20005;-66
2022/01/19 00:18:16;;;;;;;7.22;3.50;;;-4.00;81.00;;;;;;6184683;23;20012;-66
2022/01/19 00:20:41;;;;;;;8.25;3.83;;;-4.00;80.90;;;;;;6184436;23;20334;-66
2022/01/19 00:23:08;;;;;;;7.32;3.20;;;-3.90;80.80;;;;;;6184313;23;19997;-66
2022/01/19 00:25:34;;;;;;;5.97;3.30;;;-4.00;80.90;;;;;;6184306;23;20005;-65
2022/01/19 00:28:00;;;;;;;8.02;3.35;;;-4.00;80.80;;;;;;6183745;23;20005;-66
2022/01/19 00:30:26;;;;;;;5.88;2.67;;;-3.90;80.40;;;;;;6184310;23;20074;-66
2022/01/19 00:32:53;;;;;;;5.55;2.72;;;-3.90;79.20;;;;;;6184367;23;20452;-66
2022/01/19 00:35:19;;;;;;;4.75;2.53;;;-3.90;77.50;;;;;;6183837;23;20452;-66
2022/01/19 00:37:44;;;;;;;4.85;2.30;;;-3.80;76.30;;;;;;6184311;23;19997;-65
2022/01/19 00:40:14;;;;;;;5.05;2.42;;;-3.90;75.30;;;;;;6184084;23;20024;-65
2022/01/19 00:42:41;;;;;;;6.43;2.67;;;-3.90;74.60;;;;;;6184299;23;20044;-65
2022/01/19 00:45:07;;;;;;;5.15;2.45;;;-3.90;74.60;;;;;;6184080;23;20060;-66
2022/01/19 00:47:33;;;;;;;5.05;2.65;;;-3.90;74.20;;;;;;6184285;23;20058;-65
2022/01/19 00:49:59;;;;;;;5.75;2.55;;;-3.90;73.50;;;;;;6183998;23;20437;-67
2022/01/19 00:52:25;;;;;;;5.32;2.50;;;-3.90;73.90;;;;;;6184189;23;20004;-65
2022/01/19 00:54:51;;;;;;;5.63;2.60;;;-3.90;74.00;;;;;;6184374;23;20318;-66
2022/01/19 00:57:17;;;;;;;5.97;2.50;;;-4.00;73.80;;;;;;6184343;23;20031;-66
2022/01/19 00:59:42;;;;;;;5.47;2.30;;;-4.00;73.60;;;;;;6184329;23;20016;-65
2022/01/19 01:02:08;;;;;;;5.47;2.10;;;-4.00;73.10;;;;;;6184057;23;20004;-66
2022/01/19 01:04:34;;;;;;;5.47;2.25;;;-4.00;72.60;;;;;;6183812;23;20383;-67
2022/01/19 01:07:00;;;;;;;6.43;2.60;;;-4.10;72.40;;;;;;6183933;23;20075;-65
2022/01/19 01:09:27;;;;;;;6.28;2.40;;;-4.10;73.00;;;;;;6183909;23;20001;-66
2022/01/19 01:12:02;;;;;;;6.53;2.80;;;-4.10;73.20;;;;;;6183661;23;20009;-67
2022/01/19 01:20:03;;;;;;;5.75;2.70;;;-4.10;73.00;;;;;;6184202;23;20011;-66
2022/01/19 01:22:29;;;;;;;5.15;2.70;;;-4.20;73.30;;;;;;6183936;23;20017;-66
2022/01/19 01:24:54;;;;;;;6.82;2.83;;;-4.10;73.80;;;;;;6183981;23;20464;-66
2022/01/19 01:27:20;;;;;;;7.93;2.80;;;-4.10;74.20;;;;;;6184103;23;20298;-67
2022/01/19 01:29:46;;;;;;;6.53;2.80;;;-4.10;74.30;;;;;;6183642;23;20005;-66
2022/01/19 01:32:12;;;;;;;5.50;2.40;;;-4.10;74.40;;;;;;6183603;23;20328;-66
2022/01/19 01:34:37;;;;;;;5.93;2.90;;;-4.20;74.60;;;;;;6183483;23;20004;-66
2022/01/19 01:37:03;;;;;;;7.47;3.17;;;-4.10;75.00;;;;;;6183502;23;20044;-65
2022/01/19 01:39:29;;;;;;;6.25;3.17;;;-4.10;74.80;;;;;;6183189;23;19997;-66
2022/01/19 01:41:55;;;;;;;6.72;2.92;;;-4.10;74.60;;;;;;6183637;23;20436;-66
2022/01/19 01:44:21;;;;;;;7.82;2.97;;;-4.10;74.70;;;;;;6183465;23;20329;-65
2022/01/19 01:46:58;;;;;;;7.75;2.95;;;-4.10;74.80;;;;;;6183419;23;20032;-66
2022/01/19 01:49:40;;;;;;;6.88;3.70;;;-4.10;75.00;;;;;;6183623;23;20078;-66
2022/01/19 01:54:51;;;;;;;5.15;2.60;;;-4.20;75.50;;;;;;6183952;23;20438;-66
2022/01/19 01:57:17;;;;;;;8.30;4.05;;;-4.10;75.30;;;;;;6183347;23;20001;-66
2022/01/19 01:59:42;;;;;;;9.02;4.50;;;-4.10;75.00;;;;;;6183420;23;20012;-65
2022/01/19 02:02:08;;;;;;;11.35;5.32;;;-4.10;75.20;;;;;;6183472;23;20076;-66
2022/01/19 02:04:40;;;;;;;10.55;5.25;;;-4.20;75.70;;;;;;6157068;23;20033;-66
2022/01/19 02:07:30;;;;;;;7.97;3.75;;;-4.20;76.10;;;;;;6157088;23;20084;-65
2022/01/19 02:09:56;;;;;;;7.93;3.20;;;-4.20;76.20;;;;;;6183123;23;20005;-65
2022/01/19 02:23:38;;;;;;;7.38;3.63;;;-4.10;77.70;;;;;;6183479;23;20044;-65
2022/01/19 02:26:11;;;;;;;8.65;5.20;;;-4.20;78.30;;;;;;6183335;23;20463;-65
2022/01/19 02:41:52;;;;;;;10.45;5.28;;;-4.30;79.10;;;;;;6183627;23;20012;-65
2022/01/19 02:49:45;;;;;;;7.55;4.00;;;-4.30;79.10;;;;;;6193642;23;20016;-66
2022/01/19 02:52:12;;;;;;;7.57;3.75;;;-4.30;79.30;;;;;;6185221;23;20089;-65
2022/01/19 02:54:38;;;;;;;9.65;4.07;;;-4.30;79.70;;;;;;6185613;23;20008;-67
2022/01/19 02:57:07;;;;;;;8.40;3.78;;;-4.30;79.70;;;;;;6185061;23;20505;-65
2022/01/19 03:10:21;;;;;;;10.52;4.68;;;-4.40;76.80;;;;;;6185142;23;20389;-65
2022/01/19 03:12:47;;;;;;;12.55;5.32;;;-4.50;76.70;;;;;;6185018;23;20001;-66
2022/01/19 03:15:14;;;;;;;13.60;5.93;;;-4.50;77.00;;;;;;6184716;23;20074;-65
2022/01/19 03:17:40;;;;;;;12.25;4.78;;;-4.60;77.30;;;;;;6184998;23;20008;-66
2022/01/19 03:20:08;;;;;;;10.05;4.22;;;-4.60;77.40;;;;;;6185038;23;20005;-66
2022/01/19 03:22:36;;;;;;;13.73;5.78;;;-4.60;77.70;;;;;;6184849;23;20005;-65
2022/01/19 03:25:03;;;;;;;26.85;11.00;;;-4.60;78.00;;;;;;6184860;23;20088;-65
2022/01/19 03:27:28;;;;;;;14.38;6.32;;;-4.60;78.20;;;;;;6184591;23;20365;-66
2022/01/19 03:29:54;;;;;;;13.32;5.57;;;-4.60;78.20;;;;;;6184923;23;20048;-67
2022/01/19 03:32:20;;;;;;;36.25;13.23;;;-4.60;78.20;;;;;;6185227;23;20044;-66
2022/01/19 03:34:45;;;;;;;23.23;8.85;;;-4.60;78.00;;;;;;6185204;23;20001;-66
2022/01/19 03:37:11;;;;;;;14.70;5.97;;;-4.60;77.20;;;;;;6184783;23;20013;-65
2022/01/19 03:39:37;;;;;;;15.18;7.85;;;-4.60;76.10;;;;;;6185029;23;19997;-65
2022/01/19 03:42:03;;;;;;;17.83;10.10;;;-4.60;75.50;;;;;;6185035;23;20440;-65
2022/01/19 03:44:29;;;;;;;16.77;9.80;;;-4.70;75.30;;;;;;6184744;23;20008;-65
2022/01/19 03:46:58;;;;;;;12.30;7.35;;;-4.80;75.60;;;;;;6184947;23;20032;-65
2022/01/19 03:49:28;;;;;;;9.68;5.55;;;-4.90;75.90;;;;;;6184698;23;20008;-65
2022/01/19 03:51:58;;;;;;;8.25;4.40;;;-4.90;76.10;;;;;;6184945;23;20052;-65
2022/01/19 03:54:28;;;;;;;9.02;3.97;;;-4.90;76.60;;;;;;6185180;23;20330;-65
2022/01/19 03:56:54;;;;;;;8.10;3.80;;;-4.90;76.30;;;;;;6184654;23;20009;-65
2022/01/19 03:59:20;;;;;;;7.82;3.80;;;-4.90;76.20;;;;;;6184601;23;20349;-65
2022/01/19 04:01:46;;;;;;;7.65;3.78;;;-4.90;76.10;;;;;;6184296;23;20012;-66
2022/01/19 04:09:29;;;;;;;6.55;3.50;;;-5.00;76.00;;;;;;6194933;23;20001;-64
2022/01/19 04:11:55;;;;;;;7.13;3.22;;;-5.00;76.60;;;;;;6184622;23;20294;-65
2022/01/19 04:14:21;;;;;;;7.40;3.30;;;-5.00;77.10;;;;;;6184587;23;20001;-65
2022/01/19 04:16:52;;;;;;;7.32;3.33;;;-5.00;76.80;;;;;;6158332;23;20016;-65
2022/01/19 04:19:27;;;;;;;8.30;3.38;;;-5.00;76.80;;;;;;6184805;23;19997;-66
2022/01/19 04:21:55;;;;;;;7.63;3.42;;;-5.00;76.60;;;;;;6184567;23;20027;-67
2022/01/19 04:24:22;;;;;;;9.20;4.22;;;-5.10;77.00;;;;;;6184813;23;20005;-67
2022/01/19 04:29:31;;;;;;;7.18;3.90;;;-5.10;77.10;;;;;;6184627;23;20047;-67
2022/01/19 04:31:57;;;;;;;6.88;3.38;;;-5.10;77.00;;;;;;6184642;23;20009;-66
2022/01/19 04:34:23;;;;;;;8.20;3.70;;;-5.20;76.90;;;;;;6184140;23;20009;-66
2022/01/19 05:04:07;;;;;;;7.65;3.38;;;-5.30;78.40;;;;;;6184550;23;20124;-67
2022/01/19 05:06:37;;;;;;;6.45;3.03;;;-5.30;78.40;;;;;;6184399;23;20080;-67
2022/01/19 05:09:11;;;;;;;7.20;3.10;;;-5.30;78.30;;;;;;6183910;23;20033;-66
2022/01/19 05:14:21;;;;;;;6.10;2.80;;;-5.30;78.10;;;;;;6184010;23;20484;-68
2022/01/19 05:16:46;;;;;;;6.85;2.85;;;-5.40;78.00;;;;;;6183966;23;20001;-66
2022/01/19 05:19:12;;;;;;;7.20;2.90;;;-5.50;78.20;;;;;;6183947;23;20003;-66
2022/01/19 05:21:38;;;;;;;6.68;3.00;;;-5.60;78.30;;;;;;6183787;23;20440;-65
2022/01/19 05:24:06;;;;;;;8.45;4.13;;;-5.70;78.50;;;;;;6183888;23;20013;-67
2022/01/19 05:26:35;;;;;;;8.38;4.10;;;-5.80;78.90;;;;;;6183717;23;20001;-65
2022/01/19 05:29:01;;;;;;;7.50;3.67;;;-5.90;79.30;;;;;;6183723;23;19997;-67
2022/01/19 05:31:26;;;;;;;6.57;3.10;;;-6.00;79.50;;;;;;6183710;23;20001;-67
2022/01/19 05:33:53;;;;;;;7.03;3.40;;;-6.00;79.90;;;;;;6183756;23;20000;-65
2022/01/19 05:36:19;;;;;;;9.05;4.35;;;-6.10;80.00;;;;;;6183536;23;20017;-65
2022/01/19 05:38:44;;;;;;;9.73;4.32;;;-6.10;80.30;;;;;;6183455;23;20077;-66
2022/01/19 05:41:10;;;;;;;8.68;4.05;;;-6.10;80.80;;;;;;6183496;23;20100;-66
2022/01/19 05:43:37;;;;;;;11.10;4.85;;;-6.20;81.00;;;;;;6183108;23;20021;-68
2022/01/19 05:46:03;;;;;;;15.07;6.38;;;-6.20;81.10;;;;;;6183743;23;20005;-66
2022/01/19 05:48:28;;;;;;;27.85;10.25;;;-6.20;81.50;;;;;;6183669;23;20747;-67
2022/01/19 05:50:54;;;;;;;22.13;8.70;;;-6.20;81.60;;;;;;6183591;23;20109;-66
2022/01/19 05:53:20;;;;;;;10.38;5.03;;;-6.30;81.70;;;;;;6183791;23;20008;-67
2022/01/19 05:55:46;;;;;;;28.40;10.85;;;-6.30;81.80;;;;;;6157138;23;20329;-66
2022/01/19 05:58:12;;;;;;;12.60;5.47;;;-6.30;81.80;;;;;;6183418;23;20082;-68
2022/01/19 06:00:38;;;;;;;6.80;3.28;;;-6.30;81.90;;;;;;6183669;23;20009;-67
2022/01/19 06:03:04;;;;;;;11.68;4.93;;;-6.30;82.00;;;;;;6183578;23;19997;-67
2022/01/19 06:05:31;;;;;;;10.23;4.30;;;-6.30;82.10;;;;;;6183601;23;20075;-65
2022/01/19 06:10:46;;;;;;;12.05;4.97;;;-6.30;82.20;;;;;;6128407;23;20040;-65
2022/01/19 06:13:14;;;;;;;19.65;8.93;;;-6.30;82.80;;;;;;6183650;23;20084;-68
2022/01/19 06:15:41;;;;;;;15.13;7.15;;;-6.20;82.30;;;;;;6183437;23;20009;-66
2022/01/19 06:18:06;;;;;;;11.45;5.85;;;-6.20;82.20;;;;;;6156882;23;20001;-67
2022/01/19 06:20:32;;;;;;;14.05;8.75;;;-6.20;82.20;;;;;;6183251;23;20023;-67
2022/01/19 06:22:58;;;;;;;16.13;8.68;;;-6.20;82.20;;;;;;6183245;23;20023;-67
2022/01/19 06:25:23;;;;;;;21.00;9.88;;;-6.10;82.00;;;;;;6184466;23;20005;-66
2022/01/19 06:27:49;;;;;;;17.33;8.25;;;-6.10;82.10;;;;;;6186281;23;20009;-66
2022/01/19 06:30:15;;;;;;;38.38;16.08;;;-6.10;82.10;;;;;;6186395;23;20004;-66
2022/01/19 06:32:41;;;;;;;42.05;19.85;;;-6.10;82.10;;;;;;6160356;23;20001;-65
2022/01/19 06:35:08;;;;;;;25.65;11.65;;;-6.10;81.90;;;;;;6186351;23;20012;-67
2022/01/19 06:37:34;;;;;;;24.45;12.10;;;-6.00;81.90;;;;;;6186294;23;20040;-65
2022/01/19 06:40:00;;;;;;;20.60;9.70;;;-5.90;81.80;;;;;;6186132;23;20326;-67
2022/01/19 06:42:26;;;;;;;35.88;18.65;;;-5.90;81.70;;;;;;6186242;23;20017;-67
2022/01/19 06:44:51;;;;;;;23.30;11.38;;;-5.90;81.70;;;;;;6186190;23;20001;-68
2022/01/19 06:47:17;;;;;;;26.63;12.40;;;-5.80;81.80;;;;;;6186700;23;20020;-67
2022/01/19 06:49:43;;;;;;;36.95;21.25;;;-5.80;81.70;;;;;;6186808;23;20013;-67
2022/01/19 06:52:08;;;;;;;28.73;16.10;;;-5.70;81.60;;;;;;6186673;23;20001;-66
2022/01/19 06:54:34;;;;;;;21.85;11.20;;;-5.60;81.30;;;;;;6186667;23;20005;-67
2022/01/19 06:57:00;;;;;;;31.58;16.63;;;-5.50;81.20;;;;;;6186566;23;20020;-67
2022/01/19 06:59:25;;;;;;;22.17;11.98;;;-5.50;80.80;;;;;;6186668;23;20338;-68
2022/01/19 07:01:51;;;;;;;19.02;10.25;;;-5.40;80.70;;;;;;6186588;23;20031;-67
2022/01/19 07:04:17;;;;;;;11.82;6.05;;;-5.30;80.60;;;;;;6186548;23;19997;-67
2022/01/19 07:06:43;;;;;;;13.90;6.88;;;-5.20;80.20;;;;;;6160225;23;20056;-67
2022/01/19 07:09:09;;;;;;;17.40;9.65;;;-5.10;80.00;;;;;;6186310;23;20005;-68
2022/01/19 07:11:38;;;;;;;18.20;9.50;;;-5.00;79.70;;;;;;6186458;23;20011;-67
2022/01/19 07:14:05;;;;;;;14.43;8.20;;;-4.90;79.10;;;;;;6186657;23;20353;-67
2022/01/19 07:16:31;;;;;;;13.52;7.72;;;-4.90;79.00;;;;;;6186613;23;20127;-67
2022/01/19 07:18:56;;;;;;;12.45;6.85;;;-4.80;78.90;;;;;;6186453;23;19997;-67
2022/01/19 07:21:22;;;;;;;13.05;6.85;;;-4.70;78.40;;;;;;6186728;23;20008;-68
2022/01/19 07:23:48;;;;;;;13.85;4.95;;;-4.60;78.20;;;;;;6186358;23;20072;-66
2022/01/19 07:26:14;;;;;;;8.90;4.53;;;-4.60;78.60;;;;;;6186410;23;20321;-67
2022/01/19 07:28:39;;;;;;;9.70;4.97;;;-4.60;77.70;;;;;;6186015;23;20008;-67
2022/01/19 07:31:05;;;;;;;9.40;4.32;;;-4.50;77.60;;;;;;6186132;23;20009;-66
2022/01/19 07:33:31;;;;;;;7.30;3.72;;;-4.40;77.20;;;;;;6185827;23;20356;-67
2022/01/19 07:35:57;;;;;;;7.93;3.58;;;-4.30;76.70;;;;;;6186045;23;20009;-67
2022/01/19 07:38:23;;;;;;;9.05;4.15;;;-4.30;76.90;;;;;;6184904;23;20016;-68
2022/01/19 07:40:50;;;;;;;8.07;3.40;;;-4.20;76.70;;;;;;6185130;23;20005;-67
2022/01/19 07:43:16;;;;;;;7.65;3.50;;;-4.20;76.60;;;;;;6185269;23;19997;-66
2022/01/19 07:45:41;;;;;;;8.88;3.80;;;-4.10;76.20;;;;;;6184656;23;20005;-68
2022/01/19 07:48:07;;;;;;;7.43;3.70;;;-4.00;76.10;;;;;;6184803;23;20047;-66
2022/01/19 07:50:33;;;;;;;7.60;3.38;;;-3.90;75.40;;;;;;6184505;23;20012;-66
2022/01/19 07:52:59;;;;;;;8.95;3.50;;;-3.90;75.40;;;;;;6184619;23;20005;-67
2022/01/19 07:55:25;;;;;;;6.35;2.70;;;-3.80;75.30;;;;;;6184798;23;20005;-65
2022/01/19 07:57:51;;;;;;;8.55;3.05;;;-3.70;75.50;;;;;;6184161;23;20325;-68
2022/01/19 08:00:18;;;;;;;8.65;3.28;;;-3.60;74.90;;;;;;6184784;23;20008;-67
2022/01/19 08:02:45;;;;;;;8.75;3.30;;;-3.50;74.60;;;;;;6184687;23;20001;-67
2022/01/19 08:05:11;;;;;;;8.25;3.42;;;-3.30;74.40;;;;;;6184485;23;20001;-67
2022/01/19 08:07:37;;;;;;;7.20;3.70;;;-3.20;74.00;;;;;;6184224;23;20005;-70
2022/01/19 08:10:07;;;;;;;7.38;3.55;;;-3.10;73.20;;;;;;6183980;23;20009;-67
2022/01/19 08:12:33;;;;;;;8.45;3.17;;;-3.00;72.80;;;;;;6184363;23;20140;-68
2022/01/19 08:14:59;;;;;;;7.63;3.55;;;-2.90;73.00;;;;;;6184322;23;20029;-67
2022/01/19 08:17:26;;;;;;;8.23;4.38;;;-2.70;71.70;;;;;;6184408;23;19997;-66
2022/01/19 08:19:53;;;;;;;8.95;4.30;;;-2.60;71.50;;;;;;6184415;23;19998;-66
2022/01/19 08:22:19;;;;;;;10.30;4.78;;;-2.60;71.90;;;;;;6184261;23;20007;-70
2022/01/19 08:24:45;;;;;;;9.80;4.95;;;-2.50;72.00;;;;;;6184241;23;20024;-67
2022/01/19 08:27:11;;;;;;;10.45;5.18;;;-2.30;71.80;;;;;;6184387;23;20001;-67
2022/01/19 08:29:37;;;;;;;11.32;5.80;;;-2.20;71.20;;;;;;6184141;23;20009;-67
2022/01/19 08:32:04;;;;;;;10.35;5.13;;;-2.10;69.80;;;;;;6157918;23;20337;-66
2022/01/19 08:34:30;;;;;;;14.45;6.30;;;-2.10;69.90;;;;;;6184051;23;20009;-67
2022/01/19 08:36:56;;;;;;;54.63;19.58;;;-2.00;70.00;;;;;;6184108;23;20467;-66
2022/01/19 08:39:24;;;;;;;99.13;29.63;;;-2.00;69.90;;;;;;6184094;23;20048;-67
2022/01/19 08:41:49;;;;;;;49.67;17.38;;;-1.90;69.00;;;;;;6184144;23;20001;-67
2022/01/19 08:44:15;;;;;;;39.33;14.45;;;-1.80;68.80;;;;;;6183781;23;20465;-67
2022/01/19 08:46:41;;;;;;;54.30;21.73;;;-1.80;68.20;;;;;;6184033;23;20028;-67
2022/01/19 08:49:07;;;;;;;38.65;20.35;;;-1.70;68.60;;;;;;6183714;23;20001;-67
2022/01/19 08:51:33;;;;;;;29.20;16.52;;;-1.70;68.30;;;;;;6183913;23;20411;-67
2022/01/19 08:53:59;;;;;;;12.05;6.75;;;-1.60;68.20;;;;;;6184573;23;20009;-66
2022/01/19 08:56:24;;;;;;;8.73;4.95;;;-1.60;68.70;;;;;;6184399;23;20068;-67
2022/01/19 08:58:50;;;;;;;8.30;3.83;;;-1.60;68.50;;;;;;6183882;23;19997;-67
2022/01/19 09:01:16;;;;;;;7.05;2.90;;;-1.50;69.10;;;;;;6183791;23;20307;-67
2022/01/19 09:03:42;;;;;;;7.38;3.03;;;-1.30;68.20;;;;;;6184056;23;20043;-69
2022/01/19 09:06:08;;;;;;;7.40;4.13;;;-1.20;68.20;;;;;;6183825;23;20001;-67
2022/01/19 09:08:34;;;;;;;11.43;5.72;;;-1.10;68.30;;;;;;6184064;23;20475;-65
2022/01/19 09:11:01;;;;;;;9.95;4.15;;;-0.90;67.70;;;;;;6183678;23;20023;-68
2022/01/19 09:13:27;;;;;;;8.07;3.72;;;-0.90;67.60;;;;;;6183767;23;20030;-66
2022/01/19 09:15:53;;;;;;;8.25;4.45;;;-0.80;66.80;;;;;;6183649;23;20005;-68
2022/01/19 09:18:19;;;;;;;6.97;3.42;;;-0.70;67.90;;;;;;6183775;23;20005;-67
2022/01/19 09:20:45;;;;;;;6.43;3.08;;;-0.50;68.30;;;;;;6157594;23;20056;-68
2022/01/19 09:23:11;;;;;;;5.53;2.78;;;-0.10;67.70;;;;;;6183810;23;19997;-68
2022/01/19 09:25:36;;;;;;;9.35;4.03;;;0.00;66.70;;;;;;6183837;23;20325;-67
2022/01/19 09:28:02;;;;;;;8.82;4.25;;;0.20;65.80;;;;;;6183840;23;20008;-67
2022/01/19 09:30:28;;;;;;;8.73;4.00;;;0.20;65.60;;;;;;6183686;23;20001;-67
2022/01/19 09:33:07;;;;;;;8.18;3.63;;;0.30;64.60;;;;;;6183882;23;20032;-67
2022/01/19 09:38:21;;;;;;;8.05;4.15;;;0.40;65.60;;;;;;6183793;23;20448;-67
2022/01/19 09:40:47;;;;;;;11.18;5.97;;;0.50;65.40;;;;;;6183450;23;20001;-67
2022/01/19 09:43:14;;;;;;;13.60;8.02;;;0.50;65.90;;;;;;6183542;23;20112;-68
2022/01/19 09:45:39;;;;;;;12.93;7.07;;;0.60;65.10;;;;;;6182910;23;20065;-66
2022/01/19 09:48:06;;;;;;;11.30;6.85;;;0.70;64.20;;;;;;6183153;23;20410;-67
2022/01/19 09:50:33;;;;;;;10.65;5.70;;;0.90;63.40;;;;;;6183262;23;20005;-66
2022/01/19 09:53:02;;;;;;;23.80;13.50;;;0.90;63.80;;;;;;6183367;23;20488;-67
2022/01/19 09:55:28;;;;;;;16.35;9.65;;;1.00;64.50;;;;;;6183516;23;20005;-69
2022/01/19 09:57:53;;;;;;;11.90;6.43;;;1.20;64.60;;;;;;6183444;23;20004;-67
2022/01/19 10:00:19;;;;;;;25.83;13.65;;;1.30;64.70;;;;;;6183001;23;20055;-68
2022/01/19 10:03:15;;;;;;;19.58;10.20;;;1.50;65.00;;;;;;6183268;23;20084;-67
2022/01/19 10:06:07;;;;;;;13.48;6.13;;;1.80;64.10;;;;;;6183617;23;20102;-67
2022/01/19 10:08:40;;;;;;;10.55;6.05;;;2.10;63.90;;;;;;6164484;23;20318;-71
2022/01/19 10:11:17;;;;;;;13.32;7.15;;;2.40;65.00;;;;;;6183538;23;20009;-67
2022/01/19 10:17:00;;;;;;;8.68;4.25;;;3.10;61.50;;;;;;6183397;23;20015;-68
2022/01/19 10:19:33;;;;;;;8.00;3.78;;;3.50;61.60;;;;;;6183383;23;20001;-67
2022/01/19 10:22:16;;;;;;;8.48;4.28;;;4.10;60.90;;;;;;6183155;23;20000;-67
2022/01/19 10:25:04;;;;;;;7.18;3.95;;;4.50;58.30;;;;;;6183420;23;20015;-67
2022/01/19 10:27:36;;;;;;;7.13;3.78;;;4.80;58.00;;;;;;6183242;23;20116;-66
2022/01/19 10:30:04;;;;;;;7.43;3.53;;;5.20;60.20;;;;;;6183456;23;20085;-66
2022/01/19 10:32:36;;;;;;;6.93;3.47;;;5.90;59.50;;;;;;6157059;23;20317;-67
2022/01/19 10:35:24;;;;;;;7.93;3.95;;;6.50;59.60;;;;;;6182898;23;20001;-68
2022/01/19 10:38:24;;;;;;;6.00;3.20;;;7.20;53.90;;;;;;6183483;23;19997;-68
2022/01/19 10:40:56;;;;;;;6.60;2.80;;;7.50;54.90;;;;;;6171530;23;20008;-67
2022/01/19 10:43:29;;;;;;;7.00;3.30;;;7.80;51.10;;;;;;6183188;23;20001;-67
2022/01/19 10:45:56;;;;;;;5.65;2.60;;;7.80;53.10;;;;;;6183114;23;20085;-68
2022/01/19 10:48:39;;;;;;;6.80;3.33;;;7.80;53.50;;;;;;6183110;23;20047;-68
2022/01/19 10:51:09;;;;;;;6.40;3.40;;;8.10;52.30;;;;;;6182782;23;20013;-67
2022/01/19 10:53:35;;;;;;;5.93;2.90;;;8.10;51.60;;;;;;6182985;23;20331;-67
2022/01/19 10:56:05;;;;;;;4.97;2.58;;;8.20;53.20;;;;;;6182734;23;20079;-68
2022/01/19 10:58:32;;;;;;;5.00;2.45;;;8.30;50.70;;;;;;6183217;23;19997;-67
2022/01/19 11:00:58;;;;;;;6.30;3.00;;;8.50;51.20;;;;;;6183111;23;20014;-67
2022/01/19 11:03:26;;;;;;;8.18;4.13;;;8.80;49.60;;;;;;6183116;23;20414;-68
2022/01/19 11:05:54;;;;;;;9.77;5.38;;;8.80;49.60;;;;;;6183172;23;20001;-67
2022/01/19 11:08:22;;;;;;;10.50;7.25;;;9.00;51.20;;;;;;6183014;23;20040;-67
2022/01/19 11:10:51;;;;;;;15.30;12.18;;;9.40;49.80;;;;;;6183362;23;20005;-68
2022/01/19 11:13:27;;;;;;;8.93;5.72;;;9.70;49.00;;;;;;6185067;23;20005;-66
2022/01/19 11:15:57;;;;;;;9.48;5.60;;;9.80;49.20;;;;;;6184940;23;20056;-67
2022/01/19 11:18:29;;;;;;;7.28;4.38;;;10.00;50.20;;;;;;6184845;23;20059;-67
2022/01/19 11:20:57;;;;;;;6.60;3.77;;;10.30;48.80;;;;;;6184868;23;20001;-67
2022/01/19 11:24:00;;;;;;;7.32;3.75;;;10.20;47.40;;;;;;6184799;23;20005;-67
2022/01/19 11:26:31;;;;;;;6.32;2.97;;;10.20;45.40;;;;;;6184829;23;20028;-68
2022/01/19 11:29:18;;;;;;;16.35;10.32;;;10.00;45.40;;;;;;6184752;23;20005;-68
2022/01/19 11:31:43;;;;;;;19.88;13.52;;;9.30;43.90;;;;;;6184483;23;20016;-68
2022/01/19 11:34:09;;;;;;;11.93;7.07;;;8.60;47.40;;;;;;6184537;23;20388;-68
2022/01/19 11:36:40;;;;;;;11.38;6.00;;;8.40;48.90;;;;;;6184546;23;20096;-68
2022/01/19 11:39:08;;;;;;;12.93;5.93;;;8.60;49.40;;;;;;6184726;23;19993;-67
2022/01/19 11:41:51;;;;;;;7.07;3.90;;;9.10;48.50;;;;;;6184402;23;20067;-68
2022/01/19 11:44:37;;;;;;;;;;;9.60;45.20;;;;;;6185190;23;20372;-67
2022/01/19 11:47:09;;;;;;;6.68;3.38;;;9.50;44.90;;;;;;6183749;23;19923;-67
2022/01/19 11:49:52;;;;;;;7.03;3.77;;;9.90;46.70;;;;;;6184662;23;20012;-68
2022/01/19 11:52:22;;;;;;;;;;;10.20;45.60;;;;;;6158633;23;20012;-67
2022/01/19 11:54:49;;;;;;;6.40;3.50;;;10.30;44.60;;;;;;6184919;23;20292;-67
2022/01/19 11:57:35;;;;;;;7.43;3.47;;;10.50;46.00;;;;;;6184375;23;20015;-68
2022/01/19 12:00:16;;;;;;;8.52;4.30;;;10.50;42.10;;;;;;6184424;23;20001;-69
2022/01/19 12:02:47;;;;;;;7.18;3.65;;;10.40;44.80;;;;;;6184667;23;20021;-69
2022/01/19 12:05:40;;;;;;;6.50;3.25;;;10.40;44.10;;;;;;6184359;23;20437;-68
2022/01/19 12:08:29;;;;;;;5.80;2.93;;;10.30;43.80;;;;;;6184834;23;20027;-68
2022/01/19 12:11:00;;;;;;;6.72;3.17;;;10.10;42.80;;;;;;6184642;23;20005;-70
2022/01/19 12:16:17;;;;;;;8.50;4.07;;;10.70;43.50;;;;;;6184716;23;20009;-68
2022/01/19 12:18:47;;;;;;;6.57;3.75;;;10.70;43.70;;;;;;6184563;23;20475;-68
2022/01/19 12:21:22;;;;;;;8.13;3.80;;;10.80;42.20;;;;;;6184188;23;20005;-68
2022/01/19 12:23:49;;;;;;;7.82;3.97;;;10.70;41.20;;;;;;6183690;23;20104;-68
2022/01/19 12:26:15;;;;;;;6.68;3.30;;;10.60;42.80;;;;;;6183946;23;20005;-68
2022/01/19 12:28:47;;;;;;;6.93;3.80;;;10.60;44.50;;;;;;6184244;23;20080;-69
2022/01/19 12:31:22;;;;;;;8.43;5.10;;;10.80;43.70;;;;;;6184127;23;20047;-68
2022/01/19 12:34:03;;;;;;;10.10;5.90;;;10.90;43.30;;;;;;6184306;23;20008;-68
2022/01/19 12:36:49;;;;;;;8.38;4.50;;;11.00;43.40;;;;;;6183822;23;20062;-68
2022/01/19 12:39:27;;;;;;;7.90;4.20;;;11.00;42.20;;;;;;6184316;23;19997;-68
2022/01/19 12:42:03;;;;;;;8.23;4.13;;;10.80;40.70;;;;;;6157759;23;20012;-68
2022/01/19 12:44:35;;;;;;;8.20;4.65;;;10.70;41.30;;;;;;6184161;23;20441;-68
2022/01/19 12:47:02;;;;;;;9.30;4.53;;;10.50;42.40;;;;;;6184064;23;19997;-67
2022/01/19 12:49:31;;;;;;;11.63;5.80;;;10.50;42.10;;;;;;6184167;23;20321;-68
2022/01/19 12:51:57;;;;;;;8.82;4.85;;;10.40;42.40;;;;;;6157645;23;20001;-68
2022/01/19 12:54:28;;;;;;;9.73;4.30;;;10.50;43.00;;;;;;6184141;23;20059;-68
2022/01/19 12:56:56;;;;;;;8.80;4.07;;;10.60;43.60;;;;;;6183933;23;20005;-68
2022/01/19 12:59:21;;;;;;;6.63;3.40;;;10.80;41.30;;;;;;6184100;23;20078;-68
2022/01/19 13:01:47;;;;;;;10.90;6.75;;;10.80;41.60;;;;;;6184235;23;20406;-68
2022/01/19 13:04:45;;;;;;;11.13;6.68;;;10.80;41.20;;;;;;6184177;23;20415;-68
2022/01/19 13:07:20;;;;;;;10.27;5.03;;;10.80;41.20;;;;;;6155884;23;20001;-68
2022/01/19 13:10:04;;;;;;;21.90;12.43;;;10.70;39.40;;;;;;6183949;23;20028;-68
2022/01/19 13:12:43;;;;;;;12.30;7.15;;;10.50;38.70;;;;;;6183830;23;20117;-68
2022/01/19 13:15:08;;;;;;;10.85;6.40;;;10.00;40.50;;;;;;6183572;23;20024;-68
2022/01/19 13:17:46;;;;;;;9.82;5.38;;;10.10;41.10;;;;;;6183931;23;20019;-68
2022/01/19 13:20:23;;;;;;;11.95;6.93;;;10.00;41.20;;;;;;6183834;23;19997;-67
2022/01/19 13:22:54;;;;;;;8.02;4.85;;;10.20;40.40;;;;;;6184119;23;20008;-68
2022/01/19 13:25:22;;;;;;;6.85;4.05;;;10.00;40.40;;;;;;6182932;23;20425;-68
2022/01/19 13:27:50;;;;;;;8.20;4.38;;;10.00;40.60;;;;;;6183912;23;20012;-69
2022/01/19 13:30:16;;;;;;;9.52;4.35;;;9.90;40.00;;;;;;6133000;23;20008;-67
2022/01/19 13:32:43;;;;;;;10.48;5.88;;;9.80;40.70;;;;;;6183403;23;20013;-66
2022/01/19 13:35:11;;;;;;;9.73;6.28;;;9.90;39.90;;;;;;6183231;23;20083;-69
2022/01/19 13:37:42;;;;;;;8.10;5.10;;;9.90;38.80;;;;;;6183269;23;20051;-68
2022/01/19 13:40:09;;;;;;;8.05;4.78;;;9.50;39.00;;;;;;6183421;23;20417;-69
2022/01/19 13:42:45;;;;;;;8.13;4.75;;;9.10;39.70;;;;;;6183871;23;20051;-68
2022/01/19 13:46:02;;;;;;;8.00;4.50;;;9.00;40.50;;;;;;6183957;23;20035;-69
2022/01/19 13:50:47;;;;;;;8.43;4.82;;;8.60;40.40;;;;;;6183483;23;20013;-68
2022/01/19 13:53:14;;;;;;;7.88;4.32;;;8.40;40.30;;;;;;6157341;23;20024;-68
2022/01/19 13:55:41;;;;;;;8.63;4.35;;;8.10;41.00;;;;;;6157032;23;20013;-69
2022/01/19 13:58:09;;;;;;;8.80;4.55;;;8.00;41.30;;;;;;6183227;23;20106;-69
2022/01/19 14:00:54;;;;;;;8.88;4.97;;;7.70;41.10;;;;;;6183205;23;20005;-69
2022/01/19 14:03:22;;;;;;;9.38;5.28;;;7.50;41.30;;;;;;6182991;23;20417;-67
2022/01/19 14:05:54;;;;;;;9.95;5.50;;;7.20;41.70;;;;;;6183385;23;20025;-68
2022/01/19 14:08:46;;;;;;;10.17;6.43;;;6.90;41.90;;;;;;6183776;23;20274;-69
2022/01/19 14:11:22;;;;;;;10.27;5.70;;;6.60;41.60;;;;;;6176624;23;20019;-68
2022/01/19 14:14:01;;;;;;;13.70;6.40;;;6.30;42.20;;;;;;6183129;23;20333;-68
2022/01/19 14:16:31;;;;;;;12.38;6.93;;;5.80;42.70;;;;;;6183239;23;20005;-68
2022/01/19 14:19:21;;;;;;;13.27;6.50;;;5.30;42.80;;;;;;6183018;23;19997;-68
2022/01/19 14:21:55;;;;;;;14.93;8.20;;;4.60;43.50;;;;;;6182959;23;20072;-68
2022/01/19 14:24:22;;;;;;;16.17;8.57;;;4.00;43.80;;;;;;6183507;23;20036;-69
2022/01/19 14:26:50;;;;;;;18.50;9.25;;;3.40;44.50;;;;;;6183477;23;20024;-68
2022/01/19 14:29:16;;;;;;;21.02;9.15;;;2.80;45.20;;;;;;6183440;23;20108;-67
2022/01/19 14:31:58;;;;;;;20.45;10.32;;;2.30;46.10;;;;;;6182930;23;20024;-68
2022/01/19 14:34:42;;;;;;;22.45;12.68;;;1.80;47.00;;;;;;6183153;23;20008;-68
2022/01/19 14:37:10;;;;;;;26.48;14.23;;;1.30;48.00;;;;;;6182928;23;20021;-67